Medicine Park, Oklahoma
Current Conditions -  °F | °C
As of 10:32 AM on Saturday 22 Nov 2014 (Local Time) from KFSI Reporting Station
Light Rain Light Rain  
Wind Chill: 57°   Ceiling: 400
Heat Index: 57°   Visibility: 5mi
Dew Point: 57°   Wind: 14mph
Humidity: 100%   Direction: 120°ESE
Pressure: 29.95"   Gusts: NA
Location:  34.73°N, 98.5°W
Report Text: KFSI 221632Z AUTO 12012KT 5SM -RA BR BKN004 BKN019 OVC031 14/14 A2995 RMK AO2 DZB1556E1557 CIG 004V018 $
Loading
Personal Weather Stations






























Interactive Weather Map New forecast layout! Learn more

10-Day Weather Forecast

Advertisements
Track Severe Weather on mobile